sensor_id;sensor_type;location;lat;lon;timestamp;pressure;altitude;pressure_sealevel;temperature;humidity
44441;BME280;30146;52.268;20.944;2024-01-25T00:00:04;99246.45;;;6.89;73.34
44441;BME280;30146;52.268;20.944;2024-01-25T00:02:35;99242.21;;;6.88;73.26
44441;BME280;30146;52.268;20.944;2024-01-25T00:05:07;99245.95;;;6.88;73.25
44441;BME280;30146;52.268;20.944;2024-01-25T00:07:47;99246.98;;;6.87;73.24
44441;BME280;30146;52.268;20.944;2024-01-25T00:10:19;99245.47;;;6.86;73.32
44441;BME280;30146;52.268;20.944;2024-01-25T00:12:50;99246.33;;;6.84;73.14
44441;BME280;30146;52.268;20.944;2024-01-25T00:15:22;99240.07;;;6.82;73.11
44441;BME280;30146;52.268;20.944;2024-01-25T00:17:53;99244.15;;;6.82;73.17
44441;BME280;30146;52.268;20.944;2024-01-25T00:20:24;99245.00;;;6.81;73.10
44441;BME280;30146;52.268;20.944;2024-01-25T00:22:55;99243.64;;;6.81;73.03
44441;BME280;30146;52.268;20.944;2024-01-25T00:25:26;99243.48;;;6.82;73.06
44441;BME280;30146;52.268;20.944;2024-01-25T00:27:57;99248.08;;;6.80;72.93
44441;BME280;30146;52.268;20.944;2024-01-25T00:30:28;99246.39;;;6.79;72.84
44441;BME280;30146;52.268;20.944;2024-01-25T00:32:59;99247.93;;;6.78;72.78
44441;BME280;30146;52.268;20.944;2024-01-25T00:35:33;99248.27;;;6.77;72.82
44441;BME280;30146;52.268;20.944;2024-01-25T00:38:05;99248.96;;;6.76;72.74
44441;BME280;30146;52.268;20.944;2024-01-25T00:40:37;99253.06;;;6.75;72.75
44441;BME280;30146;52.268;20.944;2024-01-25T00:43:10;99256.78;;;6.75;72.88
44441;BME280;30146;52.268;20.944;2024-01-25T00:45:42;99257.30;;;6.75;72.84
44441;BME280;30146;52.268;20.944;2024-01-25T00:48:15;99262.92;;;6.74;72.90
44441;BME280;30146;52.268;20.944;2024-01-25T00:50:47;99270.23;;;6.73;73.02
44441;BME280;30146;52.268;20.944;2024-01-25T00:53:20;99266.35;;;6.71;72.92
44441;BME280;30146;52.268;20.944;2024-01-25T00:55:52;99269.27;;;6.68;73.13
44441;BME280;30146;52.268;20.944;2024-01-25T00:58:24;99273.54;;;6.65;73.09
44441;BME280;30146;52.268;20.944;2024-01-25T01:00:56;99273.92;;;6.62;73.14
44441;BME280;30146;52.268;20.944;2024-01-25T01:03:29;99274.11;;;6.59;73.26
44441;BME280;30146;52.268;20.944;2024-01-25T01:06:01;99275.18;;;6.55;73.19
44441;BME280;30146;52.268;20.944;2024-01-25T01:08:33;99272.85;;;6.50;73.36
44441;BME280;30146;52.268;20.944;2024-01-25T01:11:05;99270.52;;;6.46;73.49
44441;BME280;30146;52.268;20.944;2024-01-25T01:13:36;99270.88;;;6.44;73.72
44441;BME280;30146;52.268;20.944;2024-01-25T01:16:07;99265.98;;;6.41;73.81
44441;BME280;30146;52.268;20.944;2024-01-25T01:18:38;99268.55;;;6.40;73.89
44441;BME280;30146;52.268;20.944;2024-01-25T01:21:09;99271.77;;;6.40;74.05
44441;BME280;30146;52.268;20.944;2024-01-25T01:23:40;99268.04;;;6.40;74.24
44441;BME280;30146;52.268;20.944;2024-01-25T01:26:12;99265.30;;;6.41;74.25
44441;BME280;30146;52.268;20.944;2024-01-25T01:28:43;99262.25;;;6.41;74.37
44441;BME280;30146;52.268;20.944;2024-01-25T01:31:14;99263.25;;;6.43;74.38
44441;BME280;30146;52.268;20.944;2024-01-25T01:33:45;99258.15;;;6.44;74.32
44441;BME280;30146;52.268;20.944;2024-01-25T01:36:16;99256.95;;;6.44;74.40
44441;BME280;30146;52.268;20.944;2024-01-25T01:38:49;99256.95;;;6.45;74.28
44441;BME280;30146;52.268;20.944;2024-01-25T01:41:20;99268.84;;;6.44;74.19
44441;BME280;30146;52.268;20.944;2024-01-25T01:43:54;99267.66;;;6.43;74.20
44441;BME280;30146;52.268;20.944;2024-01-25T01:46:33;99273.42;;;6.43;74.25
44441;BME280;30146;52.268;20.944;2024-01-25T01:49:06;99265.62;;;6.43;74.33
44441;BME280;30146;52.268;20.944;2024-01-25T01:51:40;99270.05;;;6.43;74.27
44441;BME280;30146;52.268;20.944;2024-01-25T01:54:12;99264.95;;;6.42;74.25
44441;BME280;30146;52.268;20.944;2024-01-25T01:56:44;99260.72;;;6.41;74.26
44441;BME280;30146;52.268;20.944;2024-01-25T01:59:16;99263.77;;;6.41;74.26
44441;BME280;30146;52.268;20.944;2024-01-25T02:01:48;99255.64;;;6.41;74.29
44441;BME280;30146;52.268;20.944;2024-01-25T02:04:19;99251.23;;;6.41;74.33
44441;BME280;30146;52.268;20.944;2024-01-25T02:06:50;99254.77;;;6.40;74.23
44441;BME280;30146;52.268;20.944;2024-01-25T02:09:23;99252.75;;;6.40;74.30
44441;BME280;30146;52.268;20.944;2024-01-25T02:12:01;99261.23;;;6.41;74.29
44441;BME280;30146;52.268;20.944;2024-01-25T02:14:33;99252.41;;;6.40;74.13
44441;BME280;30146;52.268;20.944;2024-01-25T02:17:04;99255.98;;;6.41;74.19
44441;BME280;30146;52.268;20.944;2024-01-25T02:19:35;99256.99;;;6.41;74.19
44441;BME280;30146;52.268;20.944;2024-01-25T02:22:06;99252.23;;;6.41;74.22
44441;BME280;30146;52.268;20.944;2024-01-25T02:24:38;99261.39;;;6.42;74.07
44441;BME280;30146;52.268;20.944;2024-01-25T02:27:09;99263.59;;;6.42;74.24
44441;BME280;30146;52.268;20.944;2024-01-25T02:29:40;99270.53;;;6.44;74.17
44441;BME280;30146;52.268;20.944;2024-01-25T02:32:11;99268.31;;;6.46;74.17
44441;BME280;30146;52.268;20.944;2024-01-25T02:34:42;99270.51;;;6.47;74.22
44441;BME280;30146;52.268;20.944;2024-01-25T02:37:13;99271.70;;;6.46;74.19
44441;BME280;30146;52.268;20.944;2024-01-25T02:39:44;99270.02;;;6.46;74.05
44441;BME280;30146;52.268;20.944;2024-01-25T02:42:15;99268.84;;;6.44;74.30
44441;BME280;30146;52.268;20.944;2024-01-25T02:44:46;99273.60;;;6.44;74.22
44441;BME280;30146;52.268;20.944;2024-01-25T02:47:19;99271.56;;;6.43;74.32
44441;BME280;30146;52.268;20.944;2024-01-25T02:49:50;99274.28;;;6.43;74.32
44441;BME280;30146;52.268;20.944;2024-01-25T02:52:21;99277.02;;;6.42;74.35
44441;BME280;30146;52.268;20.944;2024-01-25T02:54:52;99274.66;;;6.41;74.34
44441;BME280;30146;52.268;20.944;2024-01-25T02:57:24;99271.77;;;6.40;74.37
44441;BME280;30146;52.268;20.944;2024-01-25T02:59:56;99275.52;;;6.38;74.31
44441;BME280;30146;52.268;20.944;2024-01-25T03:02:27;99275.88;;;6.35;74.31
44441;BME280;30146;52.268;20.944;2024-01-25T03:04:58;99280.98;;;6.34;74.39
44441;BME280;30146;52.268;20.944;2024-01-25T03:07:29;99278.79;;;6.32;74.34
44441;BME280;30146;52.268;20.944;2024-01-25T03:10:00;99286.08;;;6.33;74.51
44441;BME280;30146;52.268;20.944;2024-01-25T03:12:31;99286.94;;;6.32;74.50
44441;BME280;30146;52.268;20.944;2024-01-25T03:15:03;99285.25;;;6.32;74.55
44441;BME280;30146;52.268;20.944;2024-01-25T03:17:35;99288.14;;;6.31;74.48
44441;BME280;30146;52.268;20.944;2024-01-25T03:20:09;99286.63;;;6.30;74.50
44441;BME280;30146;52.268;20.944;2024-01-25T03:22:40;99291.89;;;6.29;74.43
44441;BME280;30146;52.268;20.944;2024-01-25T03:25:11;99291.75;;;6.27;74.52
44441;BME280;30146;52.268;20.944;2024-01-25T03:27:42;99294.48;;;6.26;74.52
44441;BME280;30146;52.268;20.944;2024-01-25T03:30:14;99296.69;;;6.24;74.54
44441;BME280;30146;52.268;20.944;2024-01-25T03:32:47;99302.97;;;6.25;74.72
44441;BME280;30146;52.268;20.944;2024-01-25T03:35:19;99307.05;;;6.25;74.81
44441;BME280;30146;52.268;20.944;2024-01-25T03:37:50;99303.98;;;6.25;74.75
44441;BME280;30146;52.268;20.944;2024-01-25T03:40:21;99298.05;;;6.25;74.71
44441;BME280;30146;52.268;20.944;2024-01-25T03:42:52;99296.36;;;6.24;74.80
44441;BME280;30146;52.268;20.944;2024-01-25T03:45:43;99295.52;;;6.23;74.70
44441;BME280;30146;52.268;20.944;2024-01-25T03:48:15;99298.40;;;6.23;74.77
44441;BME280;30146;52.268;20.944;2024-01-25T03:50:46;99300.11;;;6.22;74.70
44441;BME280;30146;52.268;20.944;2024-01-25T03:53:19;99301.13;;;6.21;74.85
44441;BME280;30146;52.268;20.944;2024-01-25T03:55:50;99295.38;;;6.20;74.61
44441;BME280;30146;52.268;20.944;2024-01-25T03:58:21;99293.69;;;6.19;74.75
44441;BME280;30146;52.268;20.944;2024-01-25T04:00:52;99287.58;;;6.17;74.63
44441;BME280;30146;52.268;20.944;2024-01-25T04:03:24;99287.59;;;6.16;74.68
44441;BME280;30146;52.268;20.944;2024-01-25T04:05:55;99285.23;;;6.16;74.77
44441;BME280;30146;52.268;20.944;2024-01-25T04:08:26;99290.15;;;6.16;74.79
44441;BME280;30146;52.268;20.944;2024-01-25T04:10:57;99289.48;;;6.14;74.83
44441;BME280;30146;52.268;20.944;2024-01-25T04:13:28;99289.66;;;6.12;74.69
44441;BME280;30146;52.268;20.944;2024-01-25T04:16:00;99288.15;;;6.11;74.67
44441;BME280;30146;52.268;20.944;2024-01-25T04:18:31;99288.15;;;6.10;74.59
44441;BME280;30146;52.268;20.944;2024-01-25T04:21:02;99302.08;;;6.09;74.73
44441;BME280;30146;52.268;20.944;2024-01-25T04:23:35;99302.25;;;6.08;74.79
44441;BME280;30146;52.268;20.944;2024-01-25T04:26:06;99304.45;;;6.09;74.85
44441;BME280;30146;52.268;20.944;2024-01-25T04:28:37;99302.25;;;6.09;74.78
44441;BME280;30146;52.268;20.944;2024-01-25T04:31:08;99310.38;;;6.09;74.80
44441;BME280;30146;52.268;20.944;2024-01-25T04:33:40;99312.59;;;6.10;74.76
44441;BME280;30146;52.268;20.944;2024-01-25T04:36:17;99308.52;;;6.10;74.78
44441;BME280;30146;52.268;20.944;2024-01-25T04:38:48;99312.92;;;6.11;74.81
44441;BME280;30146;52.268;20.944;2024-01-25T04:41:19;99313.77;;;6.10;74.81
44441;BME280;30146;52.268;20.944;2024-01-25T04:43:50;99317.68;;;6.09;74.62
44441;BME280;30146;52.268;20.944;2024-01-25T04:46:20;99315.85;;;6.07;74.45
44441;BME280;30146;52.268;20.944;2024-01-25T04:48:52;99313.14;;;6.04;74.43
44441;BME280;30146;52.268;20.944;2024-01-25T04:51:23;99310.27;;;6.03;74.51
44441;BME280;30146;52.268;20.944;2024-01-25T04:53:54;99317.23;;;6.01;74.55
44441;BME280;30146;52.268;20.944;2024-01-25T04:56:25;99317.25;;;6.00;74.36
44441;BME280;30146;52.268;20.944;2024-01-25T04:58:56;99328.29;;;5.97;74.43
44441;BME280;30146;52.268;20.944;2024-01-25T05:01:27;99325.06;;;5.95;74.28
44441;BME280;30146;52.268;20.944;2024-01-25T05:03:58;99329.46;;;5.94;74.55
44441;BME280;30146;52.268;20.944;2024-01-25T05:06:29;99330.48;;;5.94;74.54
44441;BME280;30146;52.268;20.944;2024-01-25T05:09:01;99326.92;;;5.94;74.51
44441;BME280;30146;52.268;20.944;2024-01-25T05:11:32;99334.88;;;5.94;74.43
44441;BME280;30146;52.268;20.944;2024-01-25T05:14:03;99337.61;;;5.94;74.45
44441;BME280;30146;52.268;20.944;2024-01-25T05:16:34;99332.69;;;5.94;74.39
44441;BME280;30146;52.268;20.944;2024-01-25T05:19:05;99338.62;;;5.94;74.46
44441;BME280;30146;52.268;20.944;2024-01-25T05:21:37;99333.38;;;5.95;74.32
44441;BME280;30146;52.268;20.944;2024-01-25T05:24:08;99339.83;;;5.95;74.40
44441;BME280;30146;52.268;20.944;2024-01-25T05:26:40;99340.49;;;5.96;74.18
44441;BME280;30146;52.268;20.944;2024-01-25T05:29:10;99337.29;;;5.96;74.21
44441;BME280;30146;52.268;20.944;2024-01-25T05:31:42;99339.15;;;5.96;74.19
44441;BME280;30146;52.268;20.944;2024-01-25T05:34:13;99349.50;;;5.96;74.07
44441;BME280;30146;52.268;20.944;2024-01-25T05:36:44;99343.75;;;5.95;74.12
44441;BME280;30146;52.268;20.944;2024-01-25T05:39:19;99347.98;;;5.95;74.04
44441;BME280;30146;52.268;20.944;2024-01-25T05:41:51;99351.70;;;5.96;74.07
44441;BME280;30146;52.268;20.944;2024-01-25T05:44:21;99352.38;;;5.96;73.97
44441;BME280;30146;52.268;20.944;2024-01-25T05:46:52;99351.86;;;5.98;74.03
44441;BME280;30146;52.268;20.944;2024-01-25T05:49:23;99356.10;;;6.00;74.01
44441;BME280;30146;52.268;20.944;2024-01-25T05:51:56;99356.25;;;6.01;73.90
44441;BME280;30146;52.268;20.944;2024-01-25T05:54:29;99363.73;;;6.00;73.85
44441;BME280;30146;52.268;20.944;2024-01-25T05:57:01;99360.66;;;6.00;73.83
44441;BME280;30146;52.268;20.944;2024-01-25T05:59:33;99370.84;;;6.01;73.73
44441;BME280;30146;52.268;20.944;2024-01-25T06:02:04;99370.84;;;6.02;73.77
44441;BME280;30146;52.268;20.944;2024-01-25T06:04:36;99372.19;;;6.04;73.75
44441;BME280;30146;52.268;20.944;2024-01-25T06:07:08;99375.06;;;6.05;73.75
44441;BME280;30146;52.268;20.944;2024-01-25T06:09:40;99373.68;;;6.08;73.75
44441;BME280;30146;52.268;20.944;2024-01-25T06:12:12;99382.48;;;6.10;73.70
44441;BME280;30146;52.268;20.944;2024-01-25T06:14:43;99381.64;;;6.11;73.68
44441;BME280;30146;52.268;20.944;2024-01-25T06:17:14;99386.73;;;6.11;73.33
44441;BME280;30146;52.268;20.944;2024-01-25T06:19:45;99385.02;;;6.11;73.34
44441;BME280;30146;52.268;20.944;2024-01-25T06:22:16;99386.70;;;6.14;73.51
44441;BME280;30146;52.268;20.944;2024-01-25T06:24:48;99395.35;;;6.15;73.40
44441;BME280;30146;52.268;20.944;2024-01-25T06:27:19;99389.59;;;6.16;73.39
44441;BME280;30146;52.268;20.944;2024-01-25T06:29:51;99388.21;;;6.16;73.28
44441;BME280;30146;52.268;20.944;2024-01-25T06:32:23;99385.66;;;6.16;73.11
44441;BME280;30146;52.268;20.944;2024-01-25T06:34:56;99381.41;;;6.17;73.16
44441;BME280;30146;52.268;20.944;2024-01-25T06:37:27;99383.79;;;6.19;73.27
44441;BME280;30146;52.268;20.944;2024-01-25T06:39:58;99389.22;;;6.19;73.05
44441;BME280;30146;52.268;20.944;2024-01-25T06:42:29;99388.02;;;6.21;73.03
44441;BME280;30146;52.268;20.944;2024-01-25T06:45:01;99388.86;;;6.22;73.06
44441;BME280;30146;52.268;20.944;2024-01-25T06:47:32;99386.13;;;6.23;73.06
44441;BME280;30146;52.268;20.944;2024-01-25T06:50:07;99393.59;;;6.23;72.99
44441;BME280;30146;52.268;20.944;2024-01-25T06:52:38;99394.11;;;6.23;73.09
44441;BME280;30146;52.268;20.944;2024-01-25T06:55:12;99393.27;;;6.23;73.08
44441;BME280;30146;52.268;20.944;2024-01-25T06:57:43;99395.30;;;6.21;73.21
44441;BME280;30146;52.268;20.944;2024-01-25T07:00:18;99400.24;;;6.20;73.19
44441;BME280;30146;52.268;20.944;2024-01-25T07:02:51;99401.59;;;6.19;73.20
44441;BME280;30146;52.268;20.944;2024-01-25T07:05:23;99405.36;;;6.16;73.30
44441;BME280;30146;52.268;20.944;2024-01-25T07:07:54;99407.58;;;6.14;73.37
44441;BME280;30146;52.268;20.944;2024-01-25T07:10:25;99407.75;;;6.13;73.33
44441;BME280;30146;52.268;20.944;2024-01-25T07:12:56;99410.81;;;6.11;73.40
44441;BME280;30146;52.268;20.944;2024-01-25T07:15:27;99418.11;;;6.11;73.62
44441;BME280;30146;52.268;20.944;2024-01-25T07:17:59;99417.77;;;6.12;73.64
44441;BME280;30146;52.268;20.944;2024-01-25T07:20:30;99414.55;;;6.10;73.66
44441;BME280;30146;52.268;20.944;2024-01-25T07:23:02;99416.92;;;6.10;73.78
44441;BME280;30146;52.268;20.944;2024-01-25T07:25:33;99419.98;;;6.09;73.88
44441;BME280;30146;52.268;20.944;2024-01-25T07:28:05;99421.34;;;6.10;74.06
44441;BME280;30146;52.268;20.944;2024-01-25T07:30:36;99421.67;;;6.11;74.04
44441;BME280;30146;52.268;20.944;2024-01-25T07:33:07;99423.55;;;6.10;74.16
44441;BME280;30146;52.268;20.944;2024-01-25T07:35:39;99430.15;;;6.10;74.07
44441;BME280;30146;52.268;20.944;2024-01-25T07:38:15;99423.38;;;6.08;73.96
44441;BME280;30146;52.268;20.944;2024-01-25T07:40:46;99423.91;;;6.07;74.10
44441;BME280;30146;52.268;20.944;2024-01-25T07:43:17;99430.35;;;6.07;74.20
44441;BME280;30146;52.268;20.944;2024-01-25T07:46:01;99430.00;;;6.08;74.17
44441;BME280;30146;52.268;20.944;2024-01-25T07:48:35;99429.16;;;6.07;74.26
44441;BME280;30146;52.268;20.944;2024-01-25T07:51:14;99425.93;;;6.08;74.36
44441;BME280;30146;52.268;20.944;2024-01-25T07:53:45;99427.46;;;6.08;74.46
44441;BME280;30146;52.268;20.944;2024-01-25T07:56:16;99428.46;;;6.10;74.38
44441;BME280;30146;52.268;20.944;2024-01-25T07:58:47;99429.98;;;6.11;74.49
44441;BME280;30146;52.268;20.944;2024-01-25T08:01:20;99429.96;;;6.14;74.48
44441;BME280;30146;52.268;20.944;2024-01-25T08:03:51;99434.38;;;6.15;74.48
44441;BME280;30146;52.268;20.944;2024-01-25T08:06:22;99438.61;;;6.15;74.46
44441;BME280;30146;52.268;20.944;2024-01-25T08:08:53;99445.56;;;6.17;74.57
44441;BME280;30146;52.268;20.944;2024-01-25T08:11:25;99436.90;;;6.18;74.52
44441;BME280;30146;52.268;20.944;2024-01-25T08:13:56;99440.95;;;6.20;74.51
44441;BME280;30146;52.268;20.944;2024-01-25T08:16:27;99447.06;;;6.21;74.49
44441;BME280;30146;52.268;20.944;2024-01-25T08:18:58;99440.77;;;6.22;74.47
44441;BME280;30146;52.268;20.944;2024-01-25T08:21:30;99440.79;;;6.22;74.45
44441;BME280;30146;52.268;20.944;2024-01-25T08:24:01;99447.05;;;6.22;74.49
44441;BME280;30146;52.268;20.944;2024-01-25T08:26:35;99450.95;;;6.23;74.41
44441;BME280;30146;52.268;20.944;2024-01-25T08:29:06;99448.40;;;6.24;74.33
44441;BME280;30146;52.268;20.944;2024-01-25T08:31:37;99448.91;;;6.24;74.42
44441;BME280;30146;52.268;20.944;2024-01-25T08:34:08;99453.48;;;6.25;74.49
44441;BME280;30146;52.268;20.944;2024-01-25T08:36:39;99454.67;;;6.27;74.54
44441;BME280;30146;52.268;20.944;2024-01-25T08:39:10;99458.23;;;6.26;74.34
44441;BME280;30146;52.268;20.944;2024-01-25T08:41:42;99456.54;;;6.26;74.37
44441;BME280;30146;52.268;20.944;2024-01-25T08:44:15;99461.47;;;6.26;74.48
44441;BME280;30146;52.268;20.944;2024-01-25T08:46:46;99465.19;;;6.27;74.36
44441;BME280;30146;52.268;20.944;2024-01-25T08:49:17;99467.22;;;6.27;74.37
44441;BME280;30146;52.268;20.944;2024-01-25T08:51:49;99469.09;;;6.29;74.55
44441;BME280;30146;52.268;20.944;2024-01-25T08:54:20;99474.31;;;6.32;74.70
44441;BME280;30146;52.268;20.944;2024-01-25T08:56:51;99475.00;;;6.33;74.58
44441;BME280;30146;52.268;20.944;2024-01-25T08:59:22;99480.58;;;6.33;74.46
44441;BME280;30146;52.268;20.944;2024-01-25T09:01:53;99484.16;;;6.34;74.47
44441;BME280;30146;52.268;20.944;2024-01-25T09:04:25;99489.91;;;6.35;74.54
44441;BME280;30146;52.268;20.944;2024-01-25T09:06:56;99491.79;;;6.35;74.50
44441;BME280;30146;52.268;20.944;2024-01-25T09:09:27;99497.72;;;6.35;74.60
44441;BME280;30146;52.268;20.944;2024-01-25T09:11:58;99506.89;;;6.37;74.71
44441;BME280;30146;52.268;20.944;2024-01-25T09:14:29;99516.04;;;6.40;74.75
44441;BME280;30146;52.268;20.944;2024-01-25T09:17:02;99522.32;;;6.40;74.67
44441;BME280;30146;52.268;20.944;2024-01-25T09:19:33;99526.89;;;6.42;74.72
44441;BME280;30146;52.268;20.944;2024-01-25T09:22:06;99527.21;;;6.43;74.81
44441;BME280;30146;52.268;20.944;2024-01-25T09:24:37;99526.54;;;6.45;74.60
44441;BME280;30146;52.268;20.944;2024-01-25T09:27:10;99532.99;;;6.43;74.55
44441;BME280;30146;52.268;20.944;2024-01-25T09:29:41;99536.55;;;6.43;74.57
44441;BME280;30146;52.268;20.944;2024-01-25T09:32:13;99538.43;;;6.44;74.64
44441;BME280;30146;52.268;20.944;2024-01-25T09:34:44;99541.98;;;6.44;74.55
44441;BME280;30146;52.268;20.944;2024-01-25T09:37:16;99541.14;;;6.44;74.69
44441;BME280;30146;52.268;20.944;2024-01-25T09:39:49;99541.98;;;6.46;74.65
44441;BME280;30146;52.268;20.944;2024-01-25T09:42:21;99544.52;;;6.46;74.72
44441;BME280;30146;52.268;20.944;2024-01-25T09:44:53;99550.61;;;6.48;74.81
44441;BME280;30146;52.268;20.944;2024-01-25T09:47:25;99556.55;;;6.50;74.79
44441;BME280;30146;52.268;20.944;2024-01-25T09:49:57;99563.67;;;6.49;74.74
44441;BME280;30146;52.268;20.944;2024-01-25T09:52:28;99561.47;;;6.50;74.73
44441;BME280;30146;52.268;20.944;2024-01-25T09:55:01;99564.54;;;6.51;74.75
44441;BME280;30146;52.268;20.944;2024-01-25T09:57:32;99566.73;;;6.51;74.85
44441;BME280;30146;52.268;20.944;2024-01-25T10:00:08;99563.83;;;6.53;74.86
44441;BME280;30146;52.268;20.944;2024-01-25T10:02:41;99570.77;;;6.56;74.95
44441;BME280;30146;52.268;20.944;2024-01-25T10:05:13;99578.41;;;6.58;74.88
44441;BME280;30146;52.268;20.944;2024-01-25T10:07:45;99576.19;;;6.60;74.92
44441;BME280;30146;52.268;20.944;2024-01-25T10:10:17;99580.27;;;6.60;74.97
44441;BME280;30146;52.268;20.944;2024-01-25T10:12:48;99583.99;;;6.61;74.89
44441;BME280;30146;52.268;20.944;2024-01-25T10:15:19;99587.39;;;6.62;74.88
44441;BME280;30146;52.268;20.944;2024-01-25T10:17:50;99590.45;;;6.63;74.83
44441;BME280;30146;52.268;20.944;2024-01-25T10:20:43;99593.34;;;6.62;74.63
44441;BME280;30146;52.268;20.944;2024-01-25T10:23:16;99590.95;;;6.62;74.71
44441;BME280;30146;52.268;20.944;2024-01-25T10:25:48;99590.10;;;6.61;74.62
44441;BME280;30146;52.268;20.944;2024-01-25T10:28:20;99595.02;;;6.62;74.79
44441;BME280;30146;52.268;20.944;2024-01-25T10:30:52;99594.35;;;6.62;74.82
44441;BME280;30146;52.268;20.944;2024-01-25T10:33:27;99587.88;;;6.64;74.74
44441;BME280;30146;52.268;20.944;2024-01-25T10:35:59;99596.70;;;6.67;74.87
44441;BME280;30146;52.268;20.944;2024-01-25T10:38:34;99598.20;;;6.70;74.91
44441;BME280;30146;52.268;20.944;2024-01-25T10:41:07;99600.05;;;6.75;74.95
44441;BME280;30146;52.268;20.944;2024-01-25T10:43:38;99605.80;;;6.79;74.88
44441;BME280;30146;52.268;20.944;2024-01-25T10:46:10;99600.88;;;6.80;74.74
44441;BME280;30146;52.268;20.944;2024-01-25T10:48:42;99603.58;;;6.80;74.65
44441;BME280;30146;52.268;20.944;2024-01-25T10:51:14;99609.02;;;6.83;74.60
44441;BME280;30146;52.268;20.944;2024-01-25T10:53:49;99615.45;;;6.85;74.62
44441;BME280;30146;52.268;20.944;2024-01-25T10:56:20;99612.89;;;6.88;74.64
44441;BME280;30146;52.268;20.944;2024-01-25T10:58:51;99621.71;;;6.89;74.43
44441;BME280;30146;52.268;20.944;2024-01-25T11:01:23;99620.02;;;6.88;74.28
44441;BME280;30146;52.268;20.944;2024-01-25T11:03:54;99620.02;;;6.89;74.28
44441;BME280;30146;52.268;20.944;2024-01-25T11:06:28;99619.83;;;6.90;74.30
44441;BME280;30146;52.268;20.944;2024-01-25T11:09:08;99625.26;;;6.93;74.22
44441;BME280;30146;52.268;20.944;2024-01-25T11:11:40;99620.64;;;6.97;74.18
44441;BME280;30146;52.268;20.944;2024-01-25T11:14:15;99623.33;;;7.01;74.27
44441;BME280;30146;52.268;20.944;2024-01-25T11:16:46;99621.96;;;7.03;74.22
44441;BME280;30146;52.268;20.944;2024-01-25T11:19:21;99628.56;;;7.06;74.11
44441;BME280;30146;52.268;20.944;2024-01-25T11:21:54;99630.77;;;7.08;73.99
44441;BME280;30146;52.268;20.944;2024-01-25T11:24:25;99639.75;;;7.10;73.85
44441;BME280;30146;52.268;20.944;2024-01-25T11:26:56;99634.48;;;7.10;73.84
44441;BME280;30146;52.268;20.944;2024-01-25T11:29:28;99640.27;;;7.11;73.81
44441;BME280;30146;52.268;20.944;2024-01-25T11:31:59;99647.58;;;7.09;73.56
44441;BME280;30146;52.268;20.944;2024-01-25T11:34:30;99650.31;;;7.08;73.45
44441;BME280;30146;52.268;20.944;2024-01-25T11:37:02;99648.44;;;7.09;73.43
44441;BME280;30146;52.268;20.944;2024-01-25T11:39:33;99653.17;;;7.12;73.53
44441;BME280;30146;52.268;20.944;2024-01-25T11:42:05;99654.87;;;7.14;73.56
44441;BME280;30146;52.268;20.944;2024-01-25T11:44:36;99655.70;;;7.15;73.36
44441;BME280;30146;52.268;20.944;2024-01-25T11:47:09;99658.77;;;7.15;73.32
44441;BME280;30146;52.268;20.944;2024-01-25T11:49:40;99661.82;;;7.16;73.22
44441;BME280;30146;52.268;20.944;2024-01-25T11:52:12;99669.45;;;7.16;73.14
44441;BME280;30146;52.268;20.944;2024-01-25T11:54:43;99671.66;;;7.17;73.22
44441;BME280;30146;52.268;20.944;2024-01-25T11:57:14;99678.29;;;7.19;73.06
44441;BME280;30146;52.268;20.944;2024-01-25T11:59:46;99679.30;;;7.19;73.07
44441;BME280;30146;52.268;20.944;2024-01-25T12:02:17;99687.45;;;7.20;72.97
44441;BME280;30146;52.268;20.944;2024-01-25T12:04:49;99684.55;;;7.21;73.15
44441;BME280;30146;52.268;20.944;2024-01-25T12:07:23;99697.48;;;7.21;72.99
44441;BME280;30146;52.268;20.944;2024-01-25T12:10:01;99699.86;;;7.19;72.82
44441;BME280;30146;52.268;20.944;2024-01-25T12:12:34;99704.64;;;7.17;72.82
44441;BME280;30146;52.268;20.944;2024-01-25T12:15:08;99712.30;;;7.16;72.94
44441;BME280;30146;52.268;20.944;2024-01-25T12:17:39;99719.80;;;7.15;72.87
44441;BME280;30146;52.268;20.944;2024-01-25T12:20:13;99728.11;;;7.12;73.01
44441;BME280;30146;52.268;20.944;2024-01-25T12:22:45;99740.20;;;7.09;72.90
44441;BME280;30146;52.268;20.944;2024-01-25T12:25:19;99751.42;;;7.07;73.04
44441;BME280;30146;52.268;20.944;2024-01-25T12:27:50;99762.15;;;7.05;73.16
44441;BME280;30146;52.268;20.944;2024-01-25T12:30:24;99775.07;;;7.02;73.11
44441;BME280;30146;52.268;20.944;2024-01-25T12:32:55;99777.83;;;6.93;72.63
44441;BME280;30146;52.268;20.944;2024-01-25T12:35:26;99792.83;;;6.80;72.16
44441;BME280;30146;52.268;20.944;2024-01-25T12:37:58;99797.44;;;6.67;71.99
44441;BME280;30146;52.268;20.944;2024-01-25T12:40:29;99806.98;;;6.55;72.05
44441;BME280;30146;52.268;20.944;2024-01-25T12:43:00;99809.70;;;6.45;72.21
44441;BME280;30146;52.268;20.944;2024-01-25T12:45:32;99818.89;;;6.39;72.33
44441;BME280;30146;52.268;20.944;2024-01-25T12:48:05;99823.11;;;6.34;72.55
44441;BME280;30146;52.268;20.944;2024-01-25T12:50:38;99829.23;;;6.28;72.49
44441;BME280;30146;52.268;20.944;2024-01-25T12:53:11;99835.85;;;6.22;72.32
44441;BME280;30146;52.268;20.944;2024-01-25T12:55:44;99842.83;;;6.17;72.37
44441;BME280;30146;52.268;20.944;2024-01-25T12:58:15;99839.08;;;6.13;72.43
44441;BME280;30146;52.268;20.944;2024-01-25T13:00:46;99838.23;;;6.08;72.44
44441;BME280;30146;52.268;20.944;2024-01-25T13:03:17;99839.59;;;6.05;72.55
44441;BME280;30146;52.268;20.944;2024-01-25T13:05:49;99843.48;;;6.03;72.55
44441;BME280;30146;52.268;20.944;2024-01-25T13:08:20;99846.20;;;6.02;72.53
44441;BME280;30146;52.268;20.944;2024-01-25T13:10:52;99848.24;;;6.02;72.63
44441;BME280;30146;52.268;20.944;2024-01-25T13:13:23;99853.67;;;6.03;72.76
44441;BME280;30146;52.268;20.944;2024-01-25T13:15:55;99857.56;;;6.04;72.75
44441;BME280;30146;52.268;20.944;2024-01-25T13:18:28;99861.31;;;6.06;72.67
44441;BME280;30146;52.268;20.944;2024-01-25T13:21:00;99861.31;;;6.08;72.59
44441;BME280;30146;52.268;20.944;2024-01-25T13:23:31;99864.19;;;6.08;72.46